Time;durP1;ratioP1;P1;durP2;ratioP2;P2;SDS_P1;SDS_P2;PMS_P1;PMS_P2;Temp;Humidity;BMP_temperature;BMP_pressure;BME280_temperature;BME280_humidity;BME280_pressure;Samples;Min_cycle;Max_cycle;Signal;HPM_P1;HPM_P2
2023/05/10 00:02:26;;;;;;;19.63;10.43;;;12.70;99.90;;;;;;4788207;29;20225;-61
2023/05/10 00:04:55;;;;;;;22.70;10.83;;;12.70;99.90;;;;;;4788227;29;20248;-60
2023/05/10 00:07:23;;;;;;;20.37;10.57;;;12.80;99.90;;;;;;4782824;29;20230;-61
2023/05/10 00:09:51;;;;;;;20.00;10.30;;;12.70;99.90;;;;;;4787967;29;20249;-60
2023/05/10 00:12:20;;;;;;;19.23;10.70;;;12.70;99.90;;;;;;4787295;29;20611;-60
2023/05/10 00:45:36;;;;;;;26.90;13.13;;;12.60;99.90;;;;;;4784941;29;20294;-61
2023/05/10 00:48:06;;;;;;;24.70;12.57;;;12.60;99.90;;;;;;4787802;29;20705;-60
2023/05/10 00:50:34;;;;;;;23.90;13.27;;;12.60;99.90;;;;;;4783851;29;20230;-60
2023/05/10 00:53:03;;;;;;;26.33;13.87;;;12.60;99.90;;;;;;4782036;29;20229;-60
2023/05/10 00:55:31;;;;;;;28.97;13.77;;;12.60;99.90;;;;;;4786216;29;20232;-60
2023/05/10 00:58:00;;;;;;;29.27;14.00;;;12.70;99.90;;;;;;4782648;29;20743;-61
2023/05/10 01:00:29;;;;;;;30.73;15.07;;;12.70;99.90;;;;;;4783237;29;20646;-60
2023/05/10 01:06:43;;;;;;;27.47;15.37;;;12.70;99.90;;;;;;4801945;29;20224;-64
2023/05/10 01:09:12;;;;;;;29.90;14.63;;;12.70;99.90;;;;;;4803192;29;20945;-63
2023/05/10 01:11:41;;;;;;;29.43;15.57;;;12.70;99.90;;;;;;4806636;29;20862;-63
2023/05/10 01:14:09;;;;;;;29.57;15.20;;;12.70;99.90;;;;;;4807982;29;20882;-62
2023/05/10 01:16:41;;;;;;;34.30;16.07;;;12.70;99.90;;;;;;4804199;29;20233;-63
2023/05/10 01:19:14;;;;;;;26.30;14.83;;;12.70;99.90;;;;;;4811389;29;20243;-63
2023/05/10 01:21:54;;;;;;;29.53;17.03;;;12.70;99.90;;;;;;4804405;29;20226;-63
2023/05/10 01:25:05;;;;;;;27.47;16.10;;;12.70;99.90;;;;;;4811535;29;20704;-63
2023/05/10 01:28:05;;;;;;;33.07;16.80;;;12.70;99.90;;;;;;4809756;29;20197;-63
2023/05/10 01:31:18;;;;;;;31.30;16.70;;;12.70;99.90;;;;;;4799998;29;20279;-63
2023/05/10 01:33:55;;;;;;;30.47;16.53;;;12.70;99.90;;;;;;4808692;29;20241;-63
2023/05/10 01:36:30;;;;;;;32.53;17.10;;;12.70;99.90;;;;;;4805350;29;20209;-63
2023/05/10 01:39:04;;;;;;;35.03;17.37;;;12.70;99.90;;;;;;4805634;29;20204;-63
2023/05/10 01:41:41;;;;;;;35.63;17.43;;;12.80;99.90;;;;;;4804094;29;20232;-63
2023/05/10 01:44:17;;;;;;;31.70;17.30;;;12.70;99.90;;;;;;4804214;29;20251;-63
2023/05/10 01:46:51;;;;;;;38.30;18.20;;;12.70;99.90;;;;;;4807130;29;20251;-63
2023/05/10 01:49:26;;;;;;;38.73;17.83;;;12.70;99.90;;;;;;4806593;29;20307;-63
2023/05/10 01:51:58;;;;;;;35.07;18.07;;;12.70;99.90;;;;;;4805956;29;20591;-63
2023/05/10 01:54:28;;;;;;;37.20;18.53;;;12.70;99.90;;;;;;4797190;29;20251;-63
2023/05/10 01:57:00;;;;;;;34.17;17.93;;;12.70;99.90;;;;;;4797786;29;20207;-63
2023/05/10 01:59:32;;;;;;;37.33;18.83;;;12.70;99.90;;;;;;4806513;29;20244;-63
2023/05/10 02:02:03;;;;;;;33.90;18.13;;;12.70;99.90;;;;;;4807529;29;20229;-63
2023/05/10 02:04:36;;;;;;;35.50;19.60;;;12.70;99.90;;;;;;4812911;29;20237;-63
2023/05/10 02:07:05;;;;;;;36.33;18.00;;;12.70;99.90;;;;;;4806112;29;20222;-63
2023/05/10 02:09:54;;;;;;;34.77;17.47;;;12.70;99.90;;;;;;4811649;29;20656;-63
2023/05/10 02:12:42;;;;;;;35.13;17.73;;;12.70;99.90;;;;;;4806900;29;20209;-63
2023/05/10 02:15:13;;;;;;;34.07;17.77;;;12.70;99.90;;;;;;4810568;29;20216;-63
2023/05/10 02:17:44;;;;;;;36.10;18.13;;;12.70;99.90;;;;;;4810807;29;20225;-63
2023/05/10 02:20:14;;;;;;;33.33;17.13;;;12.70;99.90;;;;;;4808052;29;20826;-63
2023/05/10 02:22:45;;;;;;;35.07;17.30;;;12.70;99.90;;;;;;4807932;29;20288;-63
2023/05/10 02:25:16;;;;;;;36.50;17.37;;;12.70;99.90;;;;;;4807850;29;20294;-63
2023/05/10 02:27:45;;;;;;;35.57;16.47;;;12.70;99.90;;;;;;4812054;29;20587;-63
2023/05/10 02:30:15;;;;;;;35.43;17.80;;;12.60;99.90;;;;;;4812505;29;20220;-63
2023/05/10 02:32:46;;;;;;;36.83;17.57;;;12.70;99.90;;;;;;4804639;29;20872;-63
2023/05/10 02:35:17;;;;;;;36.73;19.07;;;12.60;99.90;;;;;;4801994;29;20710;-63
2023/05/10 02:37:47;;;;;;;33.07;18.00;;;12.60;99.90;;;;;;4798303;29;20248;-63
2023/05/10 02:40:18;;;;;;;31.13;17.40;;;12.50;99.90;;;;;;4798003;29;20775;-63
2023/05/10 02:42:49;;;;;;;33.07;17.70;;;12.50;99.90;;;;;;4818574;29;20248;-63
2023/05/10 02:45:21;;;;;;;31.07;18.37;;;12.60;99.90;;;;;;4799025;29;20724;-63
2023/05/10 02:47:49;;;;;;;34.47;18.20;;;12.50;99.90;;;;;;4818080;29;20207;-63
2023/05/10 02:50:20;;;;;;;36.20;18.53;;;12.50;99.90;;;;;;4815602;29;20774;-63
2023/05/10 02:52:52;;;;;;;32.63;17.87;;;12.60;99.90;;;;;;4807033;29;20230;-63
2023/05/10 02:55:26;;;;;;;36.63;17.63;;;12.50;99.90;;;;;;4803446;29;20226;-63
2023/05/10 02:57:59;;;;;;;35.40;17.63;;;12.50;99.90;;;;;;4811726;29;20220;-63
2023/05/10 03:00:28;;;;;;;38.00;17.53;;;12.50;99.90;;;;;;4790443;29;20845;-64
2023/05/10 03:02:56;;;;;;;33.57;17.73;;;12.50;99.90;;;;;;4812430;29;20254;-63
2023/05/10 03:05:26;;;;;;;33.23;17.63;;;12.50;99.90;;;;;;4809672;29;20256;-64
2023/05/10 03:07:56;;;;;;;32.33;17.17;;;12.60;99.90;;;;;;4805834;29;20221;-63
2023/05/10 03:10:28;;;;;;;33.53;18.03;;;12.50;99.90;;;;;;4810311;29;20290;-63
2023/05/10 03:13:13;;;;;;;33.17;16.70;;;12.50;99.90;;;;;;4809472;29;20233;-64
2023/05/10 03:15:54;;;;;;;32.00;17.00;;;12.60;99.90;;;;;;4798540;29;20798;-64
2023/05/10 03:18:24;;;;;;;31.37;17.13;;;12.60;99.90;;;;;;4808519;29;20679;-63
2023/05/10 03:20:59;;;;;;;34.63;17.70;;;12.60;99.90;;;;;;4799657;29;20202;-64
2023/05/10 03:23:31;;;;;;;34.43;16.30;;;12.60;99.90;;;;;;4805979;29;20236;-64
2023/05/10 03:26:00;;;;;;;35.77;17.43;;;12.60;99.90;;;;;;4801931;29;20328;-63
2023/05/10 03:28:28;;;;;;;34.87;18.80;;;12.60;99.90;;;;;;4799152;29;20784;-63
2023/05/10 03:30:57;;;;;;;36.10;17.60;;;12.60;99.90;;;;;;4803518;29;20233;-63
2023/05/10 03:33:26;;;;;;;35.53;18.70;;;12.60;99.90;;;;;;4806225;29;20258;-63
2023/05/10 03:35:55;;;;;;;33.87;18.43;;;12.60;99.90;;;;;;4807424;29;20209;-63
2023/05/10 03:38:24;;;;;;;37.40;18.87;;;12.60;99.90;;;;;;4789788;29;20233;-63
2023/05/10 03:40:52;;;;;;;35.87;18.33;;;12.60;99.90;;;;;;4805863;29;20297;-63
2023/05/10 03:43:20;;;;;;;43.17;19.97;;;12.60;99.90;;;;;;4806240;29;20289;-63
2023/05/10 03:45:48;;;;;;;43.33;20.97;;;12.60;99.90;;;;;;4806454;29;20288;-63
2023/05/10 03:48:16;;;;;;;37.00;19.73;;;12.60;99.90;;;;;;4804204;29;20221;-62
2023/05/10 03:50:44;;;;;;;39.37;19.57;;;12.60;99.90;;;;;;4810542;29;20722;-64
2023/05/10 03:53:13;;;;;;;38.87;20.27;;;12.70;99.90;;;;;;4808624;29;20646;-64
2023/05/10 03:55:42;;;;;;;39.13;19.37;;;12.60;99.90;;;;;;4806277;29;20225;-64
2023/05/10 03:58:12;;;;;;;44.70;21.53;;;12.60;99.90;;;;;;4806021;29;20241;-64
2023/05/10 04:00:44;;;;;;;36.90;20.70;;;12.70;99.90;;;;;;4805212;29;20266;-64
2023/05/10 04:03:13;;;;;;;42.70;22.17;;;12.60;99.90;;;;;;4803831;29;20290;-64
2023/05/10 04:05:41;;;;;;;37.80;20.57;;;12.70;99.90;;;;;;4804619;29;21174;-63
2023/05/10 04:08:10;;;;;;;40.73;22.57;;;12.70;99.90;;;;;;4810459;29;20236;-64
2023/05/10 04:10:40;;;;;;;40.63;21.57;;;12.70;99.90;;;;;;4811344;29;20571;-64
2023/05/10 04:13:08;;;;;;;45.90;23.10;;;12.70;99.90;;;;;;4803638;29;20236;-64
2023/05/10 04:15:36;;;;;;;41.93;22.63;;;12.70;99.90;;;;;;4805374;29;20236;-64
2023/05/10 04:18:05;;;;;;;44.23;21.90;;;12.60;99.90;;;;;;4804478;29;20233;-63
2023/05/10 04:20:35;;;;;;;41.93;22.00;;;12.60;99.90;;;;;;4806788;29;20233;-63
2023/05/10 04:23:04;;;;;;;44.40;22.70;;;12.70;99.90;;;;;;4805619;29;20632;-64
2023/05/10 04:25:35;;;;;;;40.30;20.47;;;12.60;99.90;;;;;;4805722;29;20236;-65
2023/05/10 04:28:05;;;;;;;44.70;21.53;;;12.60;99.90;;;;;;4800390;29;20249;-64
2023/05/10 04:30:33;;;;;;;40.37;20.77;;;12.60;99.90;;;;;;4803122;29;20222;-64
2023/05/10 04:33:01;;;;;;;42.23;23.13;;;12.60;99.90;;;;;;4802656;29;20293;-63
2023/05/10 04:35:30;;;;;;;43.03;21.47;;;12.60;99.90;;;;;;4801514;29;20226;-63
2023/05/10 04:37:58;;;;;;;42.43;24.60;;;12.60;99.90;;;;;;4799647;29;20765;-64
2023/05/10 04:40:27;;;;;;;45.60;23.27;;;12.60;99.90;;;;;;4801925;29;20263;-64
2023/05/10 04:42:55;;;;;;;39.00;21.07;;;12.60;99.90;;;;;;4803409;29;20263;-64
2023/05/10 04:45:25;;;;;;;45.63;22.07;;;12.60;99.90;;;;;;4802219;29;20206;-63
2023/05/10 04:47:53;;;;;;;43.83;21.97;;;12.60;99.90;;;;;;4801981;29;20262;-63
2023/05/10 04:50:22;;;;;;;45.27;21.63;;;12.60;99.90;;;;;;4807070;29;20225;-64
2023/05/10 04:52:51;;;;;;;39.50;21.63;;;12.60;99.90;;;;;;4802600;29;20237;-64
2023/05/10 04:55:20;;;;;;;46.83;22.57;;;12.70;99.90;;;;;;4802421;29;20233;-64
2023/05/10 04:57:49;;;;;;;44.23;21.87;;;12.70;99.90;;;;;;4809743;29;20229;-64
2023/05/10 05:00:17;;;;;;;41.97;22.00;;;12.70;99.90;;;;;;4809972;29;20649;-64
2023/05/10 05:02:47;;;;;;;42.27;21.97;;;12.70;99.90;;;;;;4798969;29;20286;-64
2023/05/10 05:05:15;;;;;;;45.37;23.27;;;12.70;99.90;;;;;;4799555;29;20245;-64
2023/05/10 05:07:43;;;;;;;46.63;23.77;;;12.70;99.90;;;;;;4802203;29;20229;-64
2023/05/10 05:10:12;;;;;;;47.40;22.53;;;12.80;99.90;;;;;;4799605;29;20692;-64
2023/05/10 05:12:40;;;;;;;47.73;23.90;;;12.70;99.90;;;;;;4804715;29;20230;-64
2023/05/10 05:15:10;;;;;;;49.70;23.20;;;12.70;99.90;;;;;;4800036;29;20649;-64
2023/05/10 05:17:38;;;;;;;53.63;23.03;;;12.70;99.90;;;;;;4801826;29;20312;-63
2023/05/10 05:20:09;;;;;;;47.87;23.37;;;12.70;99.90;;;;;;4798606;29;20593;-64
2023/05/10 05:22:38;;;;;;;54.80;24.27;;;12.70;99.90;;;;;;4798980;29;20230;-64
2023/05/10 05:25:07;;;;;;;50.37;24.77;;;12.70;99.90;;;;;;4798252;29;20233;-64
2023/05/10 05:27:35;;;;;;;51.93;24.07;;;12.70;99.90;;;;;;4795709;29;20295;-63
2023/05/10 05:30:04;;;;;;;57.90;25.30;;;12.70;99.90;;;;;;4803304;29;20673;-64
2023/05/10 05:32:33;;;;;;;53.60;24.67;;;12.70;99.90;;;;;;4802116;29;20237;-64
2023/05/10 05:35:01;;;;;;;50.93;23.90;;;12.60;99.90;;;;;;4803983;29;20227;-64
2023/05/10 05:37:30;;;;;;;50.30;23.57;;;12.60;99.90;;;;;;4800645;29;20309;-64
2023/05/10 05:40:01;;;;;;;51.70;24.50;;;12.60;99.90;;;;;;4805757;29;20229;-64
2023/05/10 05:42:31;;;;;;;50.37;23.90;;;12.60;99.90;;;;;;4809730;29;20660;-64
2023/05/10 05:44:59;;;;;;;54.37;24.73;;;12.60;99.90;;;;;;4805099;29;20254;-64
2023/05/10 05:47:28;;;;;;;50.07;24.43;;;12.60;99.90;;;;;;4806128;29;20238;-64
2023/05/10 05:49:56;;;;;;;52.53;24.23;;;12.50;99.90;;;;;;4807401;29;20229;-63
2023/05/10 05:52:24;;;;;;;54.70;23.40;;;12.50;99.90;;;;;;4801834;29;20732;-64
2023/05/10 05:54:54;;;;;;;56.90;23.40;;;12.50;99.90;;;;;;4807880;29;20233;-63
2023/05/10 05:57:22;;;;;;;47.97;23.73;;;12.50;99.90;;;;;;4805829;29;20210;-63
2023/05/10 05:59:50;;;;;;;55.60;24.57;;;12.50;99.90;;;;;;4807487;29;20197;-63
2023/05/10 06:02:19;;;;;;;57.03;25.60;;;12.50;99.90;;;;;;4789958;29;20225;-64
2023/05/10 06:04:47;;;;;;;57.73;25.63;;;12.50;99.90;;;;;;4802794;29;20244;-63
2023/05/10 06:07:15;;;;;;;54.47;24.20;;;12.40;99.90;;;;;;4809344;29;20573;-64
2023/05/10 06:09:43;;;;;;;56.20;24.67;;;12.50;99.90;;;;;;4812127;29;20229;-63
2023/05/10 06:12:13;;;;;;;49.70;24.13;;;12.50;99.90;;;;;;4804732;29;20221;-63
2023/05/10 06:14:43;;;;;;;54.13;25.07;;;12.50;99.90;;;;;;4802748;29;20229;-63
2023/05/10 06:17:12;;;;;;;49.27;24.50;;;12.50;99.90;;;;;;4814246;29;20297;-64
2023/05/10 06:19:40;;;;;;;60.27;24.87;;;12.50;99.90;;;;;;4806473;29;20221;-63
2023/05/10 06:22:08;;;;;;;59.00;25.50;;;12.50;99.90;;;;;;4805508;29;20225;-63
2023/05/10 06:24:36;;;;;;;59.50;24.67;;;12.50;99.90;;;;;;4813393;29;20229;-64
2023/05/10 06:27:04;;;;;;;60.43;25.53;;;12.50;99.90;;;;;;4816519;29;20263;-63
2023/05/10 06:29:34;;;;;;;55.57;24.70;;;12.50;99.90;;;;;;4811056;29;20724;-63
2023/05/10 06:32:03;;;;;;;55.83;25.33;;;12.50;99.90;;;;;;4811165;29;20669;-63
2023/05/10 06:34:31;;;;;;;67.90;24.73;;;12.50;99.90;;;;;;4796171;29;20230;-63
2023/05/10 06:36:59;;;;;;;55.83;24.13;;;12.60;99.90;;;;;;4801387;29;20325;-63
2023/05/10 06:39:29;;;;;;;62.37;25.60;;;12.60;99.90;;;;;;4805450;29;20232;-63
2023/05/10 06:41:57;;;;;;;61.03;24.53;;;12.60;99.90;;;;;;4817611;29;20200;-64
2023/05/10 06:44:25;;;;;;;53.80;23.77;;;12.60;99.90;;;;;;4798889;29;20233;-64
2023/05/10 06:46:55;;;;;;;47.87;22.23;;;12.70;99.90;;;;;;4811189;29;20342;-64
2023/05/10 06:49:23;;;;;;;50.77;22.60;;;12.70;99.90;;;;;;4806370;29;20268;-63
2023/05/10 06:51:52;;;;;;;53.67;21.97;;;12.70;99.90;;;;;;4792967;29;20789;-64
2023/05/10 06:54:20;;;;;;;49.93;20.60;;;12.70;99.90;;;;;;4808159;29;20246;-63
2023/05/10 06:56:49;;;;;;;50.00;20.93;;;12.70;99.90;;;;;;4794230;29;20286;-64
2023/05/10 06:59:19;;;;;;;48.70;20.80;;;12.70;99.90;;;;;;4811238;29;20234;-63
2023/05/10 07:01:47;;;;;;;47.50;20.80;;;12.70;99.90;;;;;;4808664;29;20221;-63
2023/05/10 07:04:17;;;;;;;47.87;20.57;;;12.60;99.90;;;;;;4807943;29;20885;-63
2023/05/10 07:06:46;;;;;;;57.80;20.90;;;12.60;99.90;;;;;;4811741;29;20240;-63
2023/05/10 07:09:14;;;;;;;55.23;21.83;;;12.60;99.90;;;;;;4807574;29;20270;-63
2023/05/10 07:11:42;;;;;;;58.70;21.77;;;12.60;99.90;;;;;;4809037;29;20221;-63
2023/05/10 07:14:11;;;;;;;56.40;21.47;;;12.70;99.90;;;;;;4806452;29;20784;-63
2023/05/10 07:16:39;;;;;;;49.47;20.20;;;12.70;99.90;;;;;;4812936;29;20587;-63
2023/05/10 07:19:08;;;;;;;48.43;20.80;;;12.70;99.90;;;;;;4806209;29;20241;-63
2023/05/10 07:21:40;;;;;;;46.37;20.93;;;12.80;99.90;;;;;;4806020;29;20681;-64
2023/05/10 07:24:08;;;;;;;46.83;20.20;;;12.80;99.90;;;;;;4803843;29;20201;-63
2023/05/10 07:26:36;;;;;;;47.93;20.43;;;12.80;99.90;;;;;;4807011;29;20640;-64
2023/05/10 07:29:05;;;;;;;52.57;21.80;;;12.90;99.90;;;;;;4814764;29;20289;-63
2023/05/10 07:31:33;;;;;;;55.00;20.27;;;12.80;99.90;;;;;;4813425;29;20301;-64
2023/05/10 07:34:02;;;;;;;57.00;20.97;;;12.90;99.90;;;;;;4812895;29;20611;-63
2023/05/10 07:36:30;;;;;;;48.37;21.37;;;13.00;99.90;;;;;;4806262;29;20673;-64
2023/05/10 07:39:00;;;;;;;51.50;21.10;;;13.10;99.90;;;;;;4790396;29;20212;-64
2023/05/10 07:41:28;;;;;;;46.73;20.53;;;13.10;99.90;;;;;;4806562;29;20229;-63
2023/05/10 07:43:56;;;;;;;43.33;19.57;;;13.20;99.90;;;;;;4797344;29;20391;-63
2023/05/10 07:46:25;;;;;;;48.47;19.23;;;13.20;99.90;;;;;;4802759;29;20229;-63
2023/05/10 07:48:53;;;;;;;38.67;17.90;;;13.30;99.90;;;;;;4805279;29;20566;-63
2023/05/10 07:51:21;;;;;;;40.70;19.10;;;13.40;99.90;;;;;;4803728;29;20714;-63
2023/05/10 07:53:50;;;;;;;44.67;18.47;;;13.40;99.90;;;;;;4804428;29;20221;-64
2023/05/10 07:56:26;;;;;;;39.77;18.43;;;13.40;99.90;;;;;;4802393;29;20301;-64
2023/05/10 07:58:56;;;;;;;41.37;17.40;;;13.40;99.90;;;;;;4813505;29;20224;-63
2023/05/10 08:01:24;;;;;;;36.70;16.90;;;13.40;99.90;;;;;;4808084;29;20639;-64
2023/05/10 08:03:53;;;;;;;35.33;17.13;;;13.30;99.90;;;;;;4788522;29;20280;-64
2023/05/10 08:06:22;;;;;;;37.57;16.37;;;13.30;99.90;;;;;;4786221;29;20774;-63
2023/05/10 08:08:52;;;;;;;35.47;16.30;;;13.40;99.90;;;;;;4817781;29;20206;-64
2023/05/10 08:11:20;;;;;;;32.00;16.27;;;13.40;99.90;;;;;;4792411;29;20628;-63
2023/05/10 08:13:51;;;;;;;30.50;16.13;;;13.50;99.90;;;;;;4796438;29;20238;-64
2023/05/10 08:16:20;;;;;;;35.63;16.83;;;13.50;99.90;;;;;;4807444;29;20233;-64
2023/05/10 08:18:49;;;;;;;37.57;16.23;;;13.50;99.90;;;;;;4813265;29;20232;-63
2023/05/10 08:21:17;;;;;;;28.37;14.77;;;13.60;99.90;;;;;;4803684;29;20205;-64
2023/05/10 08:23:48;;;;;;;34.73;14.93;;;13.70;99.90;;;;;;4804980;29;20193;-63
2023/05/10 08:26:17;;;;;;;29.10;13.10;;;13.70;99.90;;;;;;4808169;29;20351;-63
2023/05/10 08:28:45;;;;;;;27.73;13.60;;;13.70;99.90;;;;;;4807590;29;20229;-64
2023/05/10 08:31:16;;;;;;;28.80;12.40;;;13.60;99.90;;;;;;4789358;29;20233;-64
2023/05/10 08:33:44;;;;;;;27.23;12.27;;;13.60;99.90;;;;;;4804547;29;20282;-63
2023/05/10 08:36:19;;;;;;;24.77;12.63;;;13.60;99.90;;;;;;4809195;29;20542;-64
2023/05/10 08:38:47;;;;;;;29.10;11.63;;;13.60;99.90;;;;;;4805208;29;20316;-64
2023/05/10 08:41:20;;;;;;;20.43;11.47;;;13.70;99.90;;;;;;4794916;29;20256;-64
2023/05/10 08:43:49;;;;;;;20.83;11.80;;;13.60;99.90;;;;;;4806655;29;20241;-63
2023/05/10 08:46:20;;;;;;;23.57;11.33;;;13.60;99.90;;;;;;4804009;29;20605;-64
2023/05/10 08:48:51;;;;;;;19.30;10.77;;;13.60;99.90;;;;;;4804664;29;20259;-64
2023/05/10 08:51:23;;;;;;;20.90;11.30;;;13.60;99.90;;;;;;4795213;29;20302;-64
2023/05/10 08:53:52;;;;;;;24.27;11.07;;;13.60;99.90;;;;;;4809564;29;20213;-64
2023/05/10 08:56:21;;;;;;;21.97;11.37;;;13.50;99.90;;;;;;4802369;29;20542;-63
2023/05/10 08:58:49;;;;;;;25.33;12.33;;;13.50;99.90;;;;;;4790286;29;20224;-64
2023/05/10 09:01:20;;;;;;;20.57;10.97;;;13.60;99.90;;;;;;4804295;29;20634;-63
2023/05/10 09:03:50;;;;;;;26.17;11.77;;;13.60;99.90;;;;;;4806055;29;20593;-64
2023/05/10 09:06:18;;;;;;;28.57;13.10;;;13.60;99.90;;;;;;4805291;29;20708;-64
2023/05/10 09:08:47;;;;;;;23.90;11.70;;;13.60;99.90;;;;;;4816346;29;20205;-63
2023/05/10 09:11:15;;;;;;;22.03;11.33;;;13.50;99.90;;;;;;4809239;29;20578;-64
2023/05/10 09:13:44;;;;;;;19.83;11.67;;;13.60;99.90;;;;;;4811531;29;20229;-63
2023/05/10 09:16:12;;;;;;;25.00;12.30;;;13.60;99.90;;;;;;4808220;29;20261;-64
2023/05/10 09:18:49;;;;;;;20.10;10.90;;;13.50;99.90;;;;;;4811542;29;20220;-64
2023/05/10 09:21:17;;;;;;;25.73;10.70;;;13.50;99.90;;;;;;4804413;29;20681;-64
2023/05/10 09:23:46;;;;;;;22.20;11.37;;;13.40;99.90;;;;;;4815330;29;20200;-63
2023/05/10 09:26:15;;;;;;;18.30;10.93;;;13.40;99.90;;;;;;4808675;29;20229;-64
2023/05/10 09:28:55;;;;;;;22.20;11.17;;;13.40;99.90;;;;;;4809030;29;20335;-64
2023/05/10 09:31:24;;;;;;;19.70;11.30;;;13.50;99.90;;;;;;4808494;29;20224;-64
2023/05/10 09:33:54;;;;;;;23.70;11.67;;;13.60;99.90;;;;;;4808374;29;20231;-64
2023/05/10 09:36:22;;;;;;;18.13;11.17;;;13.70;99.90;;;;;;4807047;29;20213;-64
2023/05/10 09:38:53;;;;;;;16.23;11.83;;;13.90;99.90;;;;;;4808828;29;20189;-64
2023/05/10 09:41:23;;;;;;;16.40;10.93;;;14.10;99.90;;;;;;4807736;29;20233;-64
2023/05/10 09:43:56;;;;;;;19.87;12.33;;;14.20;99.90;;;;;;4808904;29;20225;-63
2023/05/10 09:46:24;;;;;;;16.73;10.83;;;14.30;99.90;;;;;;4794121;29;20227;-64
2023/05/10 09:48:54;;;;;;;16.27;11.13;;;14.40;99.90;;;;;;4812413;29;20229;-64
2023/05/10 09:51:23;;;;;;;19.17;11.27;;;14.40;99.90;;;;;;4800079;29;20664;-64
2023/05/10 09:54:10;;;;;;;17.03;11.40;;;14.50;99.90;;;;;;4807928;29;20221;-64
2023/05/10 09:56:40;;;;;;;15.17;10.63;;;14.50;99.90;;;;;;4800795;29;20709;-64
2023/05/10 09:59:11;;;;;;;16.33;11.17;;;14.50;99.90;;;;;;4803356;29;20224;-64
2023/05/10 10:01:40;;;;;;;18.90;10.73;;;14.50;99.90;;;;;;4801707;29;20377;-63
2023/05/10 10:04:11;;;;;;;15.43;10.30;;;14.50;99.90;;;;;;4808291;29;20709;-63
2023/05/10 10:06:41;;;;;;;16.20;10.80;;;14.40;99.90;;;;;;4786446;29;20265;-64
2023/05/10 10:09:10;;;;;;;14.40;10.50;;;14.30;99.90;;;;;;4793103;29;20195;-63
2023/05/10 10:11:41;;;;;;;15.47;10.50;;;14.50;99.90;;;;;;4792024;29;20802;-64
2023/05/10 10:14:09;;;;;;;16.37;11.60;;;14.40;99.90;;;;;;4795159;29;20301;-64
2023/05/10 10:16:38;;;;;;;16.20;11.50;;;14.40;99.90;;;;;;4790394;29;20276;-64
2023/05/10 10:19:24;;;;;;;15.67;10.70;;;14.40;99.90;;;;;;4802121;29;20257;-64
2023/05/10 10:21:52;;;;;;;18.03;11.10;;;14.50;99.90;;;;;;4785873;29;20234;-64
2023/05/10 10:24:20;;;;;;;21.60;12.00;;;14.50;99.90;;;;;;4788663;29;20723;-63
2023/05/10 10:26:52;;;;;;;17.30;11.67;;;14.50;99.90;;;;;;4789322;29;20208;-64
2023/05/10 10:29:26;;;;;;;18.50;10.90;;;14.40;99.90;;;;;;4795893;29;20236;-63
2023/05/10 10:32:04;;;;;;;13.47;10.60;;;14.50;99.90;;;;;;4789532;29;20222;-64
2023/05/10 10:34:35;;;;;;;16.30;11.07;;;14.50;99.90;;;;;;4793239;29;20230;-63
2023/05/10 10:37:06;;;;;;;17.67;11.30;;;14.60;99.90;;;;;;4785212;29;20234;-64
2023/05/10 10:39:36;;;;;;;16.70;11.43;;;14.60;99.90;;;;;;4790058;29;20245;-64
2023/05/10 10:42:05;;;;;;;17.33;11.13;;;14.60;99.90;;;;;;4790839;29;20291;-64
2023/05/10 10:44:41;;;;;;;17.37;11.60;;;14.60;99.90;;;;;;4789775;29;20234;-65
2023/05/10 10:47:28;;;;;;;19.13;12.27;;;14.50;99.90;;;;;;4791734;29;20218;-64
2023/05/10 10:50:09;;;;;;;19.93;11.67;;;14.60;99.90;;;;;;4789509;29;20314;-64
2023/05/10 10:52:39;;;;;;;17.83;12.03;;;14.70;99.90;;;;;;4786562;29;20329;-64
2023/05/10 10:55:10;;;;;;;19.70;11.97;;;14.80;99.90;;;;;;4792676;29;20334;-64
2023/05/10 10:57:52;;;;;;;18.13;12.00;;;14.90;99.90;;;;;;4787431;29;20239;-64
2023/05/10 11:00:25;;;;;;;16.93;10.93;;;14.90;99.90;;;;;;4785124;29;20207;-64
2023/05/10 11:02:56;;;;;;;17.17;11.00;;;14.90;99.90;;;;;;4784087;29;20241;-64
2023/05/10 11:05:42;;;;;;;17.10;11.50;;;15.00;99.90;;;;;;4797991;29;20232;-64
2023/05/10 11:08:17;;;;;;;15.70;11.50;;;15.10;99.90;;;;;;4799852;29;20699;-64
2023/05/10 11:11:09;;;;;;;14.93;11.03;;;15.20;99.90;;;;;;4802789;29;20226;-64
2023/05/10 11:13:43;;;;;;;16.60;11.43;;;15.20;99.90;;;;;;4777425;29;20227;-64
2023/05/10 11:16:13;;;;;;;18.30;11.43;;;15.30;99.90;;;;;;4783761;29;20245;-64
2023/05/10 11:18:52;;;;;;;16.03;10.93;;;15.40;99.90;;;;;;4801752;29;20308;-64
2023/05/10 11:21:24;;;;;;;16.50;11.50;;;15.40;99.90;;;;;;4804022;29;20230;-63
2023/05/10 11:23:57;;;;;;;19.30;11.47;;;15.40;99.90;;;;;;4797730;29;20234;-64
2023/05/10 11:26:30;;;;;;;16.60;11.00;;;15.50;99.90;;;;;;4801973;29;20232;-63
2023/05/10 11:29:00;;;;;;;18.03;11.47;;;15.50;99.90;;;;;;4795515;29;20303;-64
2023/05/10 11:31:29;;;;;;;16.23;12.00;;;15.50;99.90;;;;;;4795642;29;20224;-64
2023/05/10 11:33:59;;;;;;;19.40;11.53;;;15.70;99.90;;;;;;4803700;29;20229;-64
2023/05/10 11:36:33;;;;;;;17.73;10.77;;;15.80;99.90;;;;;;4784234;29;20206;-64
2023/05/10 11:39:01;;;;;;;14.90;11.97;;;15.80;99.90;;;;;;4796141;29;20201;-63
2023/05/10 11:41:31;;;;;;;16.13;11.37;;;15.80;99.90;;;;;;4803378;29;20232;-64
2023/05/10 11:44:00;;;;;;;18.53;10.87;;;15.80;99.90;;;;;;4801257;29;20226;-64
2023/05/10 11:46:29;;;;;;;15.43;11.17;;;15.90;99.90;;;;;;4804611;29;21990;-64
2023/05/10 11:49:03;;;;;;;16.33;11.40;;;16.10;99.90;;;;;;4787158;29;20237;-63
2023/05/10 11:51:36;;;;;;;16.30;10.97;;;16.20;99.90;;;;;;4807405;29;20278;-64
2023/05/10 11:54:08;;;;;;;16.17;11.30;;;16.20;99.90;;;;;;4805152;29;20676;-64
2023/05/10 11:56:36;;;;;;;17.73;11.60;;;16.20;99.90;;;;;;4801323;29;20247;-64
2023/05/10 11:59:05;;;;;;;17.93;11.73;;;15.90;99.90;;;;;;4801106;29;20772;-64
2023/05/10 12:01:35;;;;;;;15.57;11.27;;;15.80;99.90;;;;;;4802795;29;20228;-64
2023/05/10 12:04:03;;;;;;;19.23;11.57;;;15.80;99.90;;;;;;4794782;29;20323;-64
2023/05/10 12:06:38;;;;;;;16.37;11.73;;;15.80;99.90;;;;;;4799528;29;20232;-64
2023/05/10 12:09:09;;;;;;;16.17;12.10;;;15.70;99.90;;;;;;4795974;29;20753;-64
2023/05/10 12:11:40;;;;;;;17.10;12.33;;;15.80;99.90;;;;;;4797886;29;20238;-64
2023/05/10 12:14:12;;;;;;;17.37;12.30;;;15.70;99.90;;;;;;4804206;29;20732;-65
2023/05/10 12:16:40;;;;;;;15.80;11.67;;;15.60;99.90;;;;;;4799509;29;20691;-64
2023/05/10 12:19:10;;;;;;;19.03;12.47;;;15.50;99.90;;;;;;4796102;29;20261;-64
2023/05/10 12:21:41;;;;;;;16.83;11.57;;;15.60;99.90;;;;;;4797119;29;20229;-64
2023/05/10 12:24:11;;;;;;;18.83;11.63;;;15.70;99.90;;;;;;4801873;29;20196;-65
2023/05/10 12:26:39;;;;;;;17.63;12.13;;;15.70;99.90;;;;;;4785320;29;20642;-64
2023/05/10 12:29:15;;;;;;;17.30;11.87;;;15.70;99.90;;;;;;4799078;29;20234;-64
2023/05/10 12:31:54;;;;;;;16.93;11.63;;;15.80;99.90;;;;;;4804689;29;20229;-64
2023/05/10 12:34:31;;;;;;;17.23;11.73;;;15.70;99.90;;;;;;4801633;29;20236;-64
2023/05/10 12:37:00;;;;;;;20.53;12.33;;;15.60;99.90;;;;;;4800140;29;20227;-64
2023/05/10 12:39:40;;;;;;;17.13;12.80;;;15.60;99.90;;;;;;4796697;29;20202;-64
2023/05/10 12:42:09;;;;;;;19.10;12.80;;;15.50;99.90;;;;;;4804337;29;20697;-65
2023/05/10 12:44:37;;;;;;;20.23;13.17;;;15.60;99.90;;;;;;4802007;29;20231;-64
2023/05/10 12:47:05;;;;;;;17.43;12.43;;;15.70;99.90;;;;;;4801115;29;20342;-64
2023/05/10 12:49:36;;;;;;;22.40;13.30;;;15.70;99.90;;;;;;4803062;29;20480;-64
2023/05/10 12:52:05;;;;;;;18.13;12.67;;;15.90;99.90;;;;;;4800193;29;20224;-64
2023/05/10 12:54:33;;;;;;;19.17;12.80;;;15.80;99.90;;;;;;4798241;29;20261;-64
2023/05/10 12:57:03;;;;;;;17.97;12.83;;;15.70;99.90;;;;;;4803873;29;20196;-64
2023/05/10 12:59:32;;;;;;;24.93;14.57;;;15.80;99.90;;;;;;4805203;29;20242;-64
2023/05/10 13:02:02;;;;;;;19.17;14.10;;;15.80;99.90;;;;;;4800876;29;20233;-64
2023/05/10 13:04:31;;;;;;;22.67;14.27;;;15.80;99.90;;;;;;4799878;29;20237;-64
2023/05/10 13:06:59;;;;;;;20.87;13.73;;;16.00;99.90;;;;;;4803018;29;20220;-64
2023/05/10 13:09:29;;;;;;;20.53;14.00;;;15.80;99.90;;;;;;4787663;29;20262;-64
2023/05/10 13:11:57;;;;;;;21.20;15.00;;;15.90;99.90;;;;;;4807783;29;20265;-65
2023/05/10 13:14:27;;;;;;;26.03;14.07;;;15.90;99.90;;;;;;4800414;29;20220;-64
2023/05/10 13:16:55;;;;;;;20.30;14.87;;;16.10;99.90;;;;;;4808929;29;20244;-64
2023/05/10 13:19:24;;;;;;;21.03;14.60;;;16.20;99.90;;;;;;4807605;29;20628;-64
2023/05/10 13:21:52;;;;;;;22.37;15.37;;;16.20;99.90;;;;;;4818398;29;20228;-64